sensor_id;sensor_type;location;lat;lon;timestamp;temperature;humidity
8662;DHT22;29684;47.722;9.388;2022-11-15T00:00:30;4.30;99.90
8662;DHT22;29684;47.722;9.388;2022-11-15T00:03:22;4.10;99.90
8662;DHT22;29684;47.722;9.388;2022-11-15T00:06:08;4.00;99.90
8662;DHT22;29684;47.722;9.388;2022-11-15T00:08:52;4.00;99.90
8662;DHT22;29684;47.722;9.388;2022-11-15T00:11:36;4.10;99.90
8662;DHT22;29684;47.722;9.388;2022-11-15T00:14:20;4.10;99.90
8662;DHT22;29684;47.722;9.388;2022-11-15T00:17:04;4.10;99.90
8662;DHT22;29684;47.722;9.388;2022-11-15T00:19:49;4.10;99.90
8662;DHT22;29684;47.722;9.388;2022-11-15T00:22:33;4.20;99.90
8662;DHT22;29684;47.722;9.388;2022-11-15T00:25:17;4.40;99.90
8662;DHT22;29684;47.722;9.388;2022-11-15T00:28:02;4.30;99.90
8662;DHT22;29684;47.722;9.388;2022-11-15T00:30:46;4.20;99.90
8662;DHT22;29684;47.722;9.388;2022-11-15T00:33:30;4.20;99.90
8662;DHT22;29684;47.722;9.388;2022-11-15T00:36:14;4.10;99.90
8662;DHT22;29684;47.722;9.388;2022-11-15T00:38:59;4.00;99.90
8662;DHT22;29684;47.722;9.388;2022-11-15T00:41:43;4.10;99.90
8662;DHT22;29684;47.722;9.388;2022-11-15T00:44:27;4.20;99.90
8662;DHT22;29684;47.722;9.388;2022-11-15T00:47:11;4.20;99.90
8662;DHT22;29684;47.722;9.388;2022-11-15T00:49:55;4.00;99.90
8662;DHT22;29684;47.722;9.388;2022-11-15T00:52:39;3.90;99.90
8662;DHT22;29684;47.722;9.388;2022-11-15T00:55:23;3.70;99.90
8662;DHT22;29684;47.722;9.388;2022-11-15T00:58:07;3.60;99.90
8662;DHT22;29684;47.722;9.388;2022-11-15T01:00:52;3.50;99.90
8662;DHT22;29684;47.722;9.388;2022-11-15T01:03:37;3.60;99.90
8662;DHT22;29684;47.722;9.388;2022-11-15T01:06:22;3.70;99.90
8662;DHT22;29684;47.722;9.388;2022-11-15T01:09:06;3.80;99.90
8662;DHT22;29684;47.722;9.388;2022-11-15T01:11:50;3.70;99.90
8662;DHT22;29684;47.722;9.388;2022-11-15T01:14:34;3.80;99.90
8662;DHT22;29684;47.722;9.388;2022-11-15T01:17:18;3.70;99.90
8662;DHT22;29684;47.722;9.388;2022-11-15T01:20:03;3.70;99.90
8662;DHT22;29684;47.722;9.388;2022-11-15T01:22:47;3.50;99.90
8662;DHT22;29684;47.722;9.388;2022-11-15T01:25:31;3.40;99.90
8662;DHT22;29684;47.722;9.388;2022-11-15T01:28:16;3.30;99.90
8662;DHT22;29684;47.722;9.388;2022-11-15T01:31:06;3.20;99.90
8662;DHT22;29684;47.722;9.388;2022-11-15T01:33:50;3.20;99.90
8662;DHT22;29684;47.722;9.388;2022-11-15T01:36:35;3.30;99.90
8662;DHT22;29684;47.722;9.388;2022-11-15T01:39:19;3.30;99.90
8662;DHT22;29684;47.722;9.388;2022-11-15T01:42:03;3.40;99.90
8662;DHT22;29684;47.722;9.388;2022-11-15T01:44:49;3.40;99.90
8662;DHT22;29684;47.722;9.388;2022-11-15T01:47:40;3.40;99.90
8662;DHT22;29684;47.722;9.388;2022-11-15T01:50:30;3.40;99.90
8662;DHT22;29684;47.722;9.388;2022-11-15T01:53:16;3.40;99.90
8662;DHT22;29684;47.722;9.388;2022-11-15T01:56:05;3.40;99.90
8662;DHT22;29684;47.722;9.388;2022-11-15T01:58:51;3.50;99.90
8662;DHT22;29684;47.722;9.388;2022-11-15T02:01:36;3.50;99.90
8662;DHT22;29684;47.722;9.388;2022-11-15T02:04:24;3.60;99.90
8662;DHT22;29684;47.722;9.388;2022-11-15T02:07:11;3.60;99.90
8662;DHT22;29684;47.722;9.388;2022-11-15T02:09:59;3.50;99.90
8662;DHT22;29684;47.722;9.388;2022-11-15T02:12:46;3.50;99.90
8662;DHT22;29684;47.722;9.388;2022-11-15T02:15:40;3.50;99.90
8662;DHT22;29684;47.722;9.388;2022-11-15T02:18:34;3.60;99.90
8662;DHT22;29684;47.722;9.388;2022-11-15T02:31:02;3.80;99.90
8662;DHT22;29684;47.722;9.388;2022-11-15T02:36:52;3.80;99.90
8662;DHT22;29684;47.722;9.388;2022-11-15T02:39:50;3.90;99.90
8662;DHT22;29684;47.722;9.388;2022-11-15T02:42:40;3.90;99.90
8662;DHT22;29684;47.722;9.388;2022-11-15T02:45:56;3.90;99.90
8662;DHT22;29684;47.722;9.388;2022-11-15T02:48:43;4.70;99.90
8662;DHT22;29684;47.722;9.388;2022-11-15T02:51:28;3.90;99.90
8662;DHT22;29684;47.722;9.388;2022-11-15T02:54:21;3.70;99.90
8662;DHT22;29684;47.722;9.388;2022-11-15T02:57:16;3.50;99.90
8662;DHT22;29684;47.722;9.388;2022-11-15T03:00:14;3.50;99.90
8662;DHT22;29684;47.722;9.388;2022-11-15T03:06:39;3.50;99.90
8662;DHT22;29684;47.722;9.388;2022-11-15T03:12:46;3.80;99.90
8662;DHT22;29684;47.722;9.388;2022-11-15T03:15:50;4.00;99.90
8662;DHT22;29684;47.722;9.388;2022-11-15T03:18:40;5.00;99.90
8662;DHT22;29684;47.722;9.388;2022-11-15T03:21:28;4.10;99.90
8662;DHT22;29684;47.722;9.388;2022-11-15T03:24:14;4.10;99.90
8662;DHT22;29684;47.722;9.388;2022-11-15T03:27:00;4.30;99.90
8662;DHT22;29684;47.722;9.388;2022-11-15T03:29:53;4.30;99.90
8662;DHT22;29684;47.722;9.388;2022-11-15T03:32:47;4.10;99.90
8662;DHT22;29684;47.722;9.388;2022-11-15T03:35:37;3.90;99.90
8662;DHT22;29684;47.722;9.388;2022-11-15T03:38:30;3.90;99.90
8662;DHT22;29684;47.722;9.388;2022-11-15T03:41:34;4.00;99.90
8662;DHT22;29684;47.722;9.388;2022-11-15T03:45:38;4.10;99.90
8662;DHT22;29684;47.722;9.388;2022-11-15T03:48:02;4.20;99.90
8662;DHT22;29684;47.722;9.388;2022-11-15T03:50:49;4.30;99.90
8662;DHT22;29684;47.722;9.388;2022-11-15T03:53:33;4.40;99.90
8662;DHT22;29684;47.722;9.388;2022-11-15T03:56:17;4.50;99.90
8662;DHT22;29684;47.722;9.388;2022-11-15T03:59:01;4.50;99.90
8662;DHT22;29684;47.722;9.388;2022-11-15T04:01:45;4.50;99.90
8662;DHT22;29684;47.722;9.388;2022-11-15T04:04:30;4.50;99.90
8662;DHT22;29684;47.722;9.388;2022-11-15T04:07:14;4.50;99.90
8662;DHT22;29684;47.722;9.388;2022-11-15T04:09:58;4.60;99.90
8662;DHT22;29684;47.722;9.388;2022-11-15T04:12:49;4.60;99.90
8662;DHT22;29684;47.722;9.388;2022-11-15T04:15:33;4.70;99.90
8662;DHT22;29684;47.722;9.388;2022-11-15T04:18:18;4.70;99.90
8662;DHT22;29684;47.722;9.388;2022-11-15T04:21:02;4.70;99.90
8662;DHT22;29684;47.722;9.388;2022-11-15T04:24:05;4.70;99.90
8662;DHT22;29684;47.722;9.388;2022-11-15T04:26:59;4.50;99.90
8662;DHT22;29684;47.722;9.388;2022-11-15T04:29:43;4.60;99.90
8662;DHT22;29684;47.722;9.388;2022-11-15T04:32:27;4.30;99.90
8662;DHT22;29684;47.722;9.388;2022-11-15T04:35:11;4.10;99.90
8662;DHT22;29684;47.722;9.388;2022-11-15T04:37:57;4.10;99.90
8662;DHT22;29684;47.722;9.388;2022-11-15T04:40:41;4.00;99.90
8662;DHT22;29684;47.722;9.388;2022-11-15T04:43:25;3.90;99.90
8662;DHT22;29684;47.722;9.388;2022-11-15T04:46:09;3.90;99.90
8662;DHT22;29684;47.722;9.388;2022-11-15T04:48:54;3.80;99.90
8662;DHT22;29684;47.722;9.388;2022-11-15T04:51:39;3.90;99.90
8662;DHT22;29684;47.722;9.388;2022-11-15T04:54:23;4.00;99.90
8662;DHT22;29684;47.722;9.388;2022-11-15T04:57:07;4.00;99.90
8662;DHT22;29684;47.722;9.388;2022-11-15T04:59:51;4.10;99.90
8662;DHT22;29684;47.722;9.388;2022-11-15T05:02:35;4.10;99.90
8662;DHT22;29684;47.722;9.388;2022-11-15T05:05:38;4.10;99.90
8662;DHT22;29684;47.722;9.388;2022-11-15T05:08:22;4.20;99.90
8662;DHT22;29684;47.722;9.388;2022-11-15T05:11:06;4.30;99.90
8662;DHT22;29684;47.722;9.388;2022-11-15T05:13:51;4.40;99.90
8662;DHT22;29684;47.722;9.388;2022-11-15T05:16:35;4.40;99.90
8662;DHT22;29684;47.722;9.388;2022-11-15T05:19:20;4.50;99.90
8662;DHT22;29684;47.722;9.388;2022-11-15T05:22:04;4.30;99.90
8662;DHT22;29684;47.722;9.388;2022-11-15T05:24:48;4.20;99.90
8662;DHT22;29684;47.722;9.388;2022-11-15T05:27:33;4.20;99.90
8662;DHT22;29684;47.722;9.388;2022-11-15T05:30:17;4.30;99.90
8662;DHT22;29684;47.722;9.388;2022-11-15T05:33:01;4.30;99.90
8662;DHT22;29684;47.722;9.388;2022-11-15T05:35:50;4.20;99.90
8662;DHT22;29684;47.722;9.388;2022-11-15T05:38:37;4.10;99.90
8662;DHT22;29684;47.722;9.388;2022-11-15T05:41:27;4.10;99.90
8662;DHT22;29684;47.722;9.388;2022-11-15T05:44:17;4.20;99.90
8662;DHT22;29684;47.722;9.388;2022-11-15T05:47:04;4.20;99.90
8662;DHT22;29684;47.722;9.388;2022-11-15T05:49:50;4.10;99.90
8662;DHT22;29684;47.722;9.388;2022-11-15T05:52:36;4.50;99.90
8662;DHT22;29684;47.722;9.388;2022-11-15T05:55:20;4.50;99.90
8662;DHT22;29684;47.722;9.388;2022-11-15T05:58:05;4.30;99.90
8662;DHT22;29684;47.722;9.388;2022-11-15T06:00:49;4.70;99.90
8662;DHT22;29684;47.722;9.388;2022-11-15T06:03:36;4.20;99.90
8662;DHT22;29684;47.722;9.388;2022-11-15T06:06:20;4.20;99.90
8662;DHT22;29684;47.722;9.388;2022-11-15T06:09:04;4.00;99.90
8662;DHT22;29684;47.722;9.388;2022-11-15T06:11:48;3.90;99.90
8662;DHT22;29684;47.722;9.388;2022-11-15T06:14:33;3.80;99.90
8662;DHT22;29684;47.722;9.388;2022-11-15T06:17:17;3.90;99.90
8662;DHT22;29684;47.722;9.388;2022-11-15T06:20:01;3.90;99.90
8662;DHT22;29684;47.722;9.388;2022-11-15T06:22:46;3.90;99.90
8662;DHT22;29684;47.722;9.388;2022-11-15T06:25:30;3.80;99.90
8662;DHT22;29684;47.722;9.388;2022-11-15T06:28:14;3.90;99.90
8662;DHT22;29684;47.722;9.388;2022-11-15T06:31:04;3.80;99.90
8662;DHT22;29684;47.722;9.388;2022-11-15T06:33:49;3.70;99.90
8662;DHT22;29684;47.722;9.388;2022-11-15T06:36:37;3.70;99.90
8662;DHT22;29684;47.722;9.388;2022-11-15T06:39:21;3.80;99.90
8662;DHT22;29684;47.722;9.388;2022-11-15T06:42:05;3.90;99.90
8662;DHT22;29684;47.722;9.388;2022-11-15T06:44:51;3.90;99.90
8662;DHT22;29684;47.722;9.388;2022-11-15T06:47:35;4.00;99.90
8662;DHT22;29684;47.722;9.388;2022-11-15T06:50:27;4.10;99.90
8662;DHT22;29684;47.722;9.388;2022-11-15T06:53:11;4.30;99.90
8662;DHT22;29684;47.722;9.388;2022-11-15T06:56:06;4.30;99.90
8662;DHT22;29684;47.722;9.388;2022-11-15T06:58:50;4.40;99.90
8662;DHT22;29684;47.722;9.388;2022-11-15T07:01:34;4.50;99.90
8662;DHT22;29684;47.722;9.388;2022-11-15T07:04:18;4.60;99.90
8662;DHT22;29684;47.722;9.388;2022-11-15T07:07:02;4.80;99.90
8662;DHT22;29684;47.722;9.388;2022-11-15T07:09:47;4.70;99.90
8662;DHT22;29684;47.722;9.388;2022-11-15T07:12:31;4.50;99.90
8662;DHT22;29684;47.722;9.388;2022-11-15T07:15:19;4.40;99.90
8662;DHT22;29684;47.722;9.388;2022-11-15T07:18:03;4.50;99.90
8662;DHT22;29684;47.722;9.388;2022-11-15T07:20:48;4.60;99.90
8662;DHT22;29684;47.722;9.388;2022-11-15T07:23:32;4.60;99.90
8662;DHT22;29684;47.722;9.388;2022-11-15T07:26:17;4.40;99.90
8662;DHT22;29684;47.722;9.388;2022-11-15T07:29:02;4.30;99.90
8662;DHT22;29684;47.722;9.388;2022-11-15T07:31:46;4.20;99.90
8662;DHT22;29684;47.722;9.388;2022-11-15T07:34:31;4.40;99.90
8662;DHT22;29684;47.722;9.388;2022-11-15T07:37:15;4.40;99.90
8662;DHT22;29684;47.722;9.388;2022-11-15T07:40:00;4.30;99.90
8662;DHT22;29684;47.722;9.388;2022-11-15T07:42:44;4.30;99.90
8662;DHT22;29684;47.722;9.388;2022-11-15T07:45:42;4.30;99.90
8662;DHT22;29684;47.722;9.388;2022-11-15T07:48:27;4.40;99.90
8662;DHT22;29684;47.722;9.388;2022-11-15T07:51:12;4.60;99.90
8662;DHT22;29684;47.722;9.388;2022-11-15T07:53:58;4.60;99.90
8662;DHT22;29684;47.722;9.388;2022-11-15T07:56:42;4.70;99.90
8662;DHT22;29684;47.722;9.388;2022-11-15T07:59:26;4.80;99.90
8662;DHT22;29684;47.722;9.388;2022-11-15T08:02:10;5.00;99.90
8662;DHT22;29684;47.722;9.388;2022-11-15T08:04:55;5.30;99.90
8662;DHT22;29684;47.722;9.388;2022-11-15T08:07:40;5.20;99.90
8662;DHT22;29684;47.722;9.388;2022-11-15T08:10:25;5.30;99.90
8662;DHT22;29684;47.722;9.388;2022-11-15T08:13:11;5.40;99.90
8662;DHT22;29684;47.722;9.388;2022-11-15T08:16:02;5.50;99.90
8662;DHT22;29684;47.722;9.388;2022-11-15T08:18:47;5.50;99.90
8662;DHT22;29684;47.722;9.388;2022-11-15T08:21:31;5.60;99.90
8662;DHT22;29684;47.722;9.388;2022-11-15T08:24:15;5.70;99.90
8662;DHT22;29684;47.722;9.388;2022-11-15T08:26:59;5.90;99.90
8662;DHT22;29684;47.722;9.388;2022-11-15T08:29:44;6.10;99.90
8662;DHT22;29684;47.722;9.388;2022-11-15T08:32:30;6.20;99.90
8662;DHT22;29684;47.722;9.388;2022-11-15T08:35:15;6.20;99.90
8662;DHT22;29684;47.722;9.388;2022-11-15T08:37:59;6.20;99.90
8662;DHT22;29684;47.722;9.388;2022-11-15T08:40:43;6.00;99.90
8662;DHT22;29684;47.722;9.388;2022-11-15T08:43:28;6.20;99.90
8662;DHT22;29684;47.722;9.388;2022-11-15T08:46:13;6.50;99.90
8662;DHT22;29684;47.722;9.388;2022-11-15T08:48:57;6.50;99.90
8662;DHT22;29684;47.722;9.388;2022-11-15T08:51:42;6.30;99.90
8662;DHT22;29684;47.722;9.388;2022-11-15T08:54:26;6.40;99.90
8662;DHT22;29684;47.722;9.388;2022-11-15T08:57:11;6.50;99.90
8662;DHT22;29684;47.722;9.388;2022-11-15T08:59:56;6.60;99.90
8662;DHT22;29684;47.722;9.388;2022-11-15T09:02:40;6.60;99.90
8662;DHT22;29684;47.722;9.388;2022-11-15T09:05:25;6.50;99.90
8662;DHT22;29684;47.722;9.388;2022-11-15T09:08:10;6.70;99.90
8662;DHT22;29684;47.722;9.388;2022-11-15T09:10:55;6.30;99.90
8662;DHT22;29684;47.722;9.388;2022-11-15T09:13:40;6.30;99.90
8662;DHT22;29684;47.722;9.388;2022-11-15T09:16:24;6.40;99.90
8662;DHT22;29684;47.722;9.388;2022-11-15T09:19:08;6.50;99.90
8662;DHT22;29684;47.722;9.388;2022-11-15T09:21:52;6.60;99.90
8662;DHT22;29684;47.722;9.388;2022-11-15T09:24:37;6.60;99.90
8662;DHT22;29684;47.722;9.388;2022-11-15T09:27:21;6.80;99.90
8662;DHT22;29684;47.722;9.388;2022-11-15T09:30:05;6.90;99.90
8662;DHT22;29684;47.722;9.388;2022-11-15T09:32:50;7.00;99.90
8662;DHT22;29684;47.722;9.388;2022-11-15T09:35:34;7.10;99.90
8662;DHT22;29684;47.722;9.388;2022-11-15T09:38:19;7.10;99.90
8662;DHT22;29684;47.722;9.388;2022-11-15T09:44:13;7.20;99.90
8662;DHT22;29684;47.722;9.388;2022-11-15T09:50:01;7.10;99.90
8662;DHT22;29684;47.722;9.388;2022-11-15T09:52:51;7.10;99.90
8662;DHT22;29684;47.722;9.388;2022-11-15T09:59:00;7.10;99.90
8662;DHT22;29684;47.722;9.388;2022-11-15T10:04:54;7.30;99.90
8662;DHT22;29684;47.722;9.388;2022-11-15T10:11:03;7.30;99.90
8662;DHT22;29684;47.722;9.388;2022-11-15T10:13:50;7.30;99.90
8662;DHT22;29684;47.722;9.388;2022-11-15T10:25:39;7.30;99.90
8662;DHT22;29684;47.722;9.388;2022-11-15T10:28:27;7.30;99.90
8662;DHT22;29684;47.722;9.388;2022-11-15T10:31:26;7.40;99.90
8662;DHT22;29684;47.722;9.388;2022-11-15T10:34:12;7.40;99.90
8662;DHT22;29684;47.722;9.388;2022-11-15T10:37:00;7.40;99.90
8662;DHT22;29684;47.722;9.388;2022-11-15T10:40:03;7.30;99.90
8662;DHT22;29684;47.722;9.388;2022-11-15T10:42:49;7.40;99.90
8662;DHT22;29684;47.722;9.388;2022-11-15T10:45:47;7.50;99.90
8662;DHT22;29684;47.722;9.388;2022-11-15T10:48:32;7.60;99.90
8662;DHT22;29684;47.722;9.388;2022-11-15T10:51:25;7.90;99.90
8662;DHT22;29684;47.722;9.388;2022-11-15T10:54:12;8.10;99.90
8662;DHT22;29684;47.722;9.388;2022-11-15T10:57:04;8.20;99.90
8662;DHT22;29684;47.722;9.388;2022-11-15T10:59:55;8.30;99.90
8662;DHT22;29684;47.722;9.388;2022-11-15T11:03:03;8.20;99.90
8662;DHT22;29684;47.722;9.388;2022-11-15T11:06:13;8.20;99.90
8662;DHT22;29684;47.722;9.388;2022-11-15T11:09:03;8.30;99.90
8662;DHT22;29684;47.722;9.388;2022-11-15T11:11:50;8.20;99.90
8662;DHT22;29684;47.722;9.388;2022-11-15T11:14:37;8.30;99.90
8662;DHT22;29684;47.722;9.388;2022-11-15T11:17:42;8.10;99.90
8662;DHT22;29684;47.722;9.388;2022-11-15T11:20:41;8.30;99.90
8662;DHT22;29684;47.722;9.388;2022-11-15T11:23:56;8.50;99.90
8662;DHT22;29684;47.722;9.388;2022-11-15T11:27:13;8.60;99.90
8662;DHT22;29684;47.722;9.388;2022-11-15T11:30:23;8.90;99.90
8662;DHT22;29684;47.722;9.388;2022-11-15T11:33:20;8.80;99.90
8662;DHT22;29684;47.722;9.388;2022-11-15T11:36:20;8.60;99.90
8662;DHT22;29684;47.722;9.388;2022-11-15T11:39:21;8.60;99.90
8662;DHT22;29684;47.722;9.388;2022-11-15T11:42:24;8.70;99.90
8662;DHT22;29684;47.722;9.388;2022-11-15T11:51:24;8.70;99.90
8662;DHT22;29684;47.722;9.388;2022-11-15T12:00:33;8.80;99.90
8662;DHT22;29684;47.722;9.388;2022-11-15T12:06:41;8.70;99.90
8662;DHT22;29684;47.722;9.388;2022-11-15T12:09:39;8.80;99.90
8662;DHT22;29684;47.722;9.388;2022-11-15T12:12:33;8.70;99.90
8662;DHT22;29684;47.722;9.388;2022-11-15T12:15:23;8.90;99.90
8662;DHT22;29684;47.722;9.388;2022-11-15T12:18:12;9.30;99.90
8662;DHT22;29684;47.722;9.388;2022-11-15T12:21:03;9.20;99.90
8662;DHT22;29684;47.722;9.388;2022-11-15T12:24:19;9.30;99.90
8662;DHT22;29684;47.722;9.388;2022-11-15T12:27:19;9.10;99.90
8662;DHT22;29684;47.722;9.388;2022-11-15T12:30:16;9.00;99.90
8662;DHT22;29684;47.722;9.388;2022-11-15T12:33:01;9.20;99.90
8662;DHT22;29684;47.722;9.388;2022-11-15T12:36:01;9.30;99.90
8662;DHT22;29684;47.722;9.388;2022-11-15T12:38:53;9.30;99.90
8662;DHT22;29684;47.722;9.388;2022-11-15T12:41:43;9.40;99.90
8662;DHT22;29684;47.722;9.388;2022-11-15T12:47:26;9.50;99.90
8662;DHT22;29684;47.722;9.388;2022-11-15T12:50:13;9.50;99.90
8662;DHT22;29684;47.722;9.388;2022-11-15T12:59:01;9.70;99.90
8662;DHT22;29684;47.722;9.388;2022-11-15T13:04:30;10.00;99.90
8662;DHT22;29684;47.722;9.388;2022-11-15T13:13:08;10.20;99.90
8662;DHT22;29684;47.722;9.388;2022-11-15T13:15:55;10.30;99.90
8662;DHT22;29684;47.722;9.388;2022-11-15T13:18:40;10.30;99.90
8662;DHT22;29684;47.722;9.388;2022-11-15T13:21:24;10.40;99.90
8662;DHT22;29684;47.722;9.388;2022-11-15T13:24:27;10.40;99.90
8662;DHT22;29684;47.722;9.388;2022-11-15T13:27:18;10.50;99.90
8662;DHT22;29684;47.722;9.388;2022-11-15T13:30:04;10.30;99.90
8662;DHT22;29684;47.722;9.388;2022-11-15T13:32:48;10.20;99.90
8662;DHT22;29684;47.722;9.388;2022-11-15T13:35:39;10.20;99.90
8662;DHT22;29684;47.722;9.388;2022-11-15T13:38:32;10.20;99.90
8662;DHT22;29684;47.722;9.388;2022-11-15T13:41:24;10.20;99.90
8662;DHT22;29684;47.722;9.388;2022-11-15T13:44:20;10.40;99.90
8662;DHT22;29684;47.722;9.388;2022-11-15T13:47:09;10.40;99.90
8662;DHT22;29684;47.722;9.388;2022-11-15T13:49:57;10.40;99.90
8662;DHT22;29684;47.722;9.388;2022-11-15T13:52:44;10.30;99.90
8662;DHT22;29684;47.722;9.388;2022-11-15T13:55:30;10.40;99.90
8662;DHT22;29684;47.722;9.388;2022-11-15T13:58:17;10.30;99.90
8662;DHT22;29684;47.722;9.388;2022-11-15T14:01:03;10.20;99.90
8662;DHT22;29684;47.722;9.388;2022-11-15T14:03:59;10.20;99.90
8662;DHT22;29684;47.722;9.388;2022-11-15T14:06:48;10.10;99.90
8662;DHT22;29684;47.722;9.388;2022-11-15T14:09:39;10.10;99.90
8662;DHT22;29684;47.722;9.388;2022-11-15T14:12:31;10.10;99.90
8662;DHT22;29684;47.722;9.388;2022-11-15T14:15:31;10.10;99.90
8662;DHT22;29684;47.722;9.388;2022-11-15T14:18:40;10.10;99.90
8662;DHT22;29684;47.722;9.388;2022-11-15T14:21:25;10.00;99.90
8662;DHT22;29684;47.722;9.388;2022-11-15T14:24:20;9.90;99.90
8662;DHT22;29684;47.722;9.388;2022-11-15T14:27:25;9.80;99.90
8662;DHT22;29684;47.722;9.388;2022-11-15T14:30:15;9.70;99.90
8662;DHT22;29684;47.722;9.388;2022-11-15T14:33:00;9.70;99.90
8662;DHT22;29684;47.722;9.388;2022-11-15T14:35:45;9.70;99.90
8662;DHT22;29684;47.722;9.388;2022-11-15T14:38:29;9.60;99.90
8662;DHT22;29684;47.722;9.388;2022-11-15T14:41:23;9.60;99.90
8662;DHT22;29684;47.722;9.388;2022-11-15T14:44:10;9.60;99.90
8662;DHT22;29684;47.722;9.388;2022-11-15T14:46:55;9.50;99.90
8662;DHT22;29684;47.722;9.388;2022-11-15T14:49:39;9.60;99.90
8662;DHT22;29684;47.722;9.388;2022-11-15T14:52:26;9.60;99.90
8662;DHT22;29684;47.722;9.388;2022-11-15T14:55:30;9.60;99.90
8662;DHT22;29684;47.722;9.388;2022-11-15T14:58:16;9.60;99.90
8662;DHT22;29684;47.722;9.388;2022-11-15T15:01:03;10.10;99.90
8662;DHT22;29684;47.722;9.388;2022-11-15T15:03:47;9.60;99.90
8662;DHT22;29684;47.722;9.388;2022-11-15T15:06:32;9.60;99.90
8662;DHT22;29684;47.722;9.388;2022-11-15T15:09:19;9.60;99.90
8662;DHT22;29684;47.722;9.388;2022-11-15T15:12:04;9.60;99.90
8662;DHT22;29684;47.722;9.388;2022-11-15T15:14:51;9.60;99.90
8662;DHT22;29684;47.722;9.388;2022-11-15T15:17:35;9.70;99.90
8662;DHT22;29684;47.722;9.388;2022-11-15T15:20:20;9.70;99.90
8662;DHT22;29684;47.722;9.388;2022-11-15T15:23:05;9.60;99.90
8662;DHT22;29684;47.722;9.388;2022-11-15T15:25:50;9.70;99.90
8662;DHT22;29684;47.722;9.388;2022-11-15T15:28:36;9.70;99.90
8662;DHT22;29684;47.722;9.388;2022-11-15T15:31:22;9.60;99.90
8662;DHT22;29684;47.722;9.388;2022-11-15T15:34:06;9.60;99.90
8662;DHT22;29684;47.722;9.388;2022-11-15T15:37:18;9.60;99.90
8662;DHT22;29684;47.722;9.388;2022-11-15T15:40:17;9.50;99.90
8662;DHT22;29684;47.722;9.388;2022-11-15T15:43:02;9.50;99.90
8662;DHT22;29684;47.722;9.388;2022-11-15T15:45:46;9.50;99.90
8662;DHT22;29684;47.722;9.388;2022-11-15T15:48:30;9.60;99.90
8662;DHT22;29684;47.722;9.388;2022-11-15T15:51:17;9.20;99.90
8662;DHT22;29684;47.722;9.388;2022-11-15T15:54:01;9.20;99.90
8662;DHT22;29684;47.722;9.388;2022-11-15T15:56:45;9.10;99.90
8662;DHT22;29684;47.722;9.388;2022-11-15T15:59:30;9.10;99.90
8662;DHT22;29684;47.722;9.388;2022-11-15T16:02:15;9.10;99.90
8662;DHT22;29684;47.722;9.388;2022-11-15T16:04:59;9.10;99.90
8662;DHT22;29684;47.722;9.388;2022-11-15T16:07:44;9.00;99.90
8662;DHT22;29684;47.722;9.388;2022-11-15T16:10:31;9.00;99.90
8662;DHT22;29684;47.722;9.388;2022-11-15T16:13:16;9.00;99.90
8662;DHT22;29684;47.722;9.388;2022-11-15T16:16:01;8.90;99.90
8662;DHT22;29684;47.722;9.388;2022-11-15T16:18:45;8.90;99.90
8662;DHT22;29684;47.722;9.388;2022-11-15T16:21:29;8.90;99.90
8662;DHT22;29684;47.722;9.388;2022-11-15T16:24:14;8.90;99.90
8662;DHT22;29684;47.722;9.388;2022-11-15T16:26:59;8.80;99.90
8662;DHT22;29684;47.722;9.388;2022-11-15T16:29:44;8.80;99.90
8662;DHT22;29684;47.722;9.388;2022-11-15T16:32:28;8.80;99.90
8662;DHT22;29684;47.722;9.388;2022-11-15T16:35:14;8.70;99.90
8662;DHT22;29684;47.722;9.388;2022-11-15T16:37:59;8.80;99.90
8662;DHT22;29684;47.722;9.388;2022-11-15T16:40:43;8.80;99.90
8662;DHT22;29684;47.722;9.388;2022-11-15T16:43:27;8.80;99.90
8662;DHT22;29684;47.722;9.388;2022-11-15T16:46:20;8.80;99.90
8662;DHT22;29684;47.722;9.388;2022-11-15T16:49:04;8.80;99.90
8662;DHT22;29684;47.722;9.388;2022-11-15T16:51:51;8.80;99.90
8662;DHT22;29684;47.722;9.388;2022-11-15T16:54:36;8.80;99.90
8662;DHT22;29684;47.722;9.388;2022-11-15T16:57:20;8.90;99.90
8662;DHT22;29684;47.722;9.388;2022-11-15T17:00:05;8.70;99.90
8662;DHT22;29684;47.722;9.388;2022-11-15T17:02:50;8.70;99.90
8662;DHT22;29684;47.722;9.388;2022-11-15T17:05:34;8.80;99.90
8662;DHT22;29684;47.722;9.388;2022-11-15T17:08:19;9.10;99.90
8662;DHT22;29684;47.722;9.388;2022-11-15T17:11:06;9.30;99.90
8662;DHT22;29684;47.722;9.388;2022-11-15T17:13:50;9.40;99.90
8662;DHT22;29684;47.722;9.388;2022-11-15T17:16:34;9.60;99.90
8662;DHT22;29684;47.722;9.388;2022-11-15T17:19:21;9.70;99.90
8662;DHT22;29684;47.722;9.388;2022-11-15T17:22:05;9.80;99.90
8662;DHT22;29684;47.722;9.388;2022-11-15T17:24:50;9.90;99.90
8662;DHT22;29684;47.722;9.388;2022-11-15T17:27:34;9.90;99.90
8662;DHT22;29684;47.722;9.388;2022-11-15T17:30:18;10.00;99.90
8662;DHT22;29684;47.722;9.388;2022-11-15T17:33:03;10.10;99.90
8662;DHT22;29684;47.722;9.388;2022-11-15T17:35:58;10.10;99.90
8662;DHT22;29684;47.722;9.388;2022-11-15T17:38:43;10.20;99.90
8662;DHT22;29684;47.722;9.388;2022-11-15T17:41:28;10.40;99.90
8662;DHT22;29684;47.722;9.388;2022-11-15T17:44:13;10.50;99.90
8662;DHT22;29684;47.722;9.388;2022-11-15T17:46:57;10.70;99.90
8662;DHT22;29684;47.722;9.388;2022-11-15T17:49:41;11.40;99.90
8662;DHT22;29684;47.722;9.388;2022-11-15T17:52:26;11.00;99.90
8662;DHT22;29684;47.722;9.388;2022-11-15T17:55:10;10.90;99.90
8662;DHT22;29684;47.722;9.388;2022-11-15T17:57:55;10.90;99.90
8662;DHT22;29684;47.722;9.388;2022-11-15T18:00:39;10.90;99.90
8662;DHT22;29684;47.722;9.388;2022-11-15T18:03:23;10.90;99.90
8662;DHT22;29684;47.722;9.388;2022-11-15T18:06:08;10.80;99.90
8662;DHT22;29684;47.722;9.388;2022-11-15T18:08:53;10.90;99.90
8662;DHT22;29684;47.722;9.388;2022-11-15T18:11:41;10.80;99.90
8662;DHT22;29684;47.722;9.388;2022-11-15T18:14:26;10.80;99.90
8662;DHT22;29684;47.722;9.388;2022-11-15T18:17:11;9.90;99.90
8662;DHT22;29684;47.722;9.388;2022-11-15T18:19:55;11.00;99.90
8662;DHT22;29684;47.722;9.388;2022-11-15T18:22:39;11.10;99.90
8662;DHT22;29684;47.722;9.388;2022-11-15T18:25:24;11.00;99.90
8662;DHT22;29684;47.722;9.388;2022-11-15T18:28:08;11.00;99.90
8662;DHT22;29684;47.722;9.388;2022-11-15T18:30:53;11.10;99.90
8662;DHT22;29684;47.722;9.388;2022-11-15T18:33:37;11.10;99.90
8662;DHT22;29684;47.722;9.388;2022-11-15T18:36:23;11.30;99.90
8662;DHT22;29684;47.722;9.388;2022-11-15T18:39:09;11.20;99.90
8662;DHT22;29684;47.722;9.388;2022-11-15T18:41:59;11.30;99.90
8662;DHT22;29684;47.722;9.388;2022-11-15T18:44:43;11.30;99.90
8662;DHT22;29684;47.722;9.388;2022-11-15T18:47:28;11.20;99.90
8662;DHT22;29684;47.722;9.388;2022-11-15T18:50:14;11.20;99.90
8662;DHT22;29684;47.722;9.388;2022-11-15T18:52:59;11.20;99.90
8662;DHT22;29684;47.722;9.388;2022-11-15T18:55:44;11.20;99.90
8662;DHT22;29684;47.722;9.388;2022-11-15T18:58:34;11.20;99.90
8662;DHT22;29684;47.722;9.388;2022-11-15T19:01:21;11.10;99.90
8662;DHT22;29684;47.722;9.388;2022-11-15T19:04:11;11.00;99.90
8662;DHT22;29684;47.722;9.388;2022-11-15T19:06:56;11.20;99.90
8662;DHT22;29684;47.722;9.388;2022-11-15T19:09:40;11.20;99.90
8662;DHT22;29684;47.722;9.388;2022-11-15T19:12:24;11.10;99.90
8662;DHT22;29684;47.722;9.388;2022-11-15T19:15:09;11.10;99.90
8662;DHT22;29684;47.722;9.388;2022-11-15T19:17:54;11.10;99.90
8662;DHT22;29684;47.722;9.388;2022-11-15T19:20:38;11.00;99.90
8662;DHT22;29684;47.722;9.388;2022-11-15T19:23:22;11.00;99.90
8662;DHT22;29684;47.722;9.388;2022-11-15T19:26:26;11.00;99.90
8662;DHT22;29684;47.722;9.388;2022-11-15T19:29:11;10.60;99.90